Terminal Aerodrome Forecast
Issued by NWS Chicago, IL

Home | Current Version | Previous Version | Graphics & Text | Print | Product List | Glossary On
Versions: 1 2 3 4 5 6 7 8 9 10 11 12 13 14 15 16 17 18 19 20 21 22 23 24 25
960
FTUS43 KLOT 150905 AAB
TAFRFD
TAF AMD
KRFD 150905Z 1509/1606 23009KT 3SM BR SCT005 BKN250
      TEMPO 1510/1514 3/4SM BR BKN005
     FM151400 23007KT 3/4SM -DZ BR OVC003
     FM151800 26006KT 1 1/2SM BR VCSH OVC004
     FM152300 31008KT 3SM BR OVC008
     FM160500 32014G19KT P6SM OVC010=

USA.gov is the U.S. government's official web portal to all federal, state and local government web resources and services.